sensor_id;sensor_type;location;lat;lon;timestamp;P1;durP1;ratioP1;P2;durP2;ratioP2
60292;SDS011;52402;52.670;6.750;2023-10-31T00:01:30;154.27;;;143.57;;
60292;SDS011;52402;52.670;6.750;2023-10-31T00:03:56;155.07;;;144.18;;
60292;SDS011;52402;52.670;6.750;2023-10-31T00:06:22;153.93;;;142.98;;
60292;SDS011;52402;52.670;6.750;2023-10-31T00:08:47;154.30;;;143.50;;
60292;SDS011;52402;52.670;6.750;2023-10-31T00:11:13;151.55;;;141.15;;
60292;SDS011;52402;52.670;6.750;2023-10-31T00:13:38;152.23;;;141.82;;
60292;SDS011;52402;52.670;6.750;2023-10-31T00:16:04;148.85;;;138.52;;
60292;SDS011;52402;52.670;6.750;2023-10-31T00:18:30;147.63;;;137.18;;
60292;SDS011;52402;52.670;6.750;2023-10-31T00:20:55;152.43;;;141.73;;
60292;SDS011;52402;52.670;6.750;2023-10-31T00:23:22;174.20;;;162.10;;
60292;SDS011;52402;52.670;6.750;2023-10-31T00:25:48;174.25;;;162.18;;
60292;SDS011;52402;52.670;6.750;2023-10-31T00:28:13;171.68;;;159.50;;
60292;SDS011;52402;52.670;6.750;2023-10-31T00:30:39;163.63;;;151.82;;
60292;SDS011;52402;52.670;6.750;2023-10-31T00:33:04;163.70;;;151.77;;
60292;SDS011;52402;52.670;6.750;2023-10-31T00:35:30;161.30;;;149.63;;
60292;SDS011;52402;52.670;6.750;2023-10-31T00:37:56;156.25;;;144.65;;
60292;SDS011;52402;52.670;6.750;2023-10-31T00:40:21;177.35;;;164.82;;
60292;SDS011;52402;52.670;6.750;2023-10-31T00:42:47;179.93;;;167.52;;
60292;SDS011;52402;52.670;6.750;2023-10-31T00:45:13;187.80;;;175.02;;
60292;SDS011;52402;52.670;6.750;2023-10-31T00:47:38;178.30;;;165.63;;
60292;SDS011;52402;52.670;6.750;2023-10-31T00:50:04;178.00;;;165.30;;
60292;SDS011;52402;52.670;6.750;2023-10-31T00:52:30;189.60;;;176.32;;
60292;SDS011;52402;52.670;6.750;2023-10-31T00:54:55;192.32;;;179.38;;
60292;SDS011;52402;52.670;6.750;2023-10-31T00:57:21;184.93;;;171.95;;
60292;SDS011;52402;52.670;6.750;2023-10-31T00:59:46;180.45;;;168.02;;
60292;SDS011;52402;52.670;6.750;2023-10-31T01:02:12;192.45;;;179.82;;
60292;SDS011;52402;52.670;6.750;2023-10-31T01:04:42;198.77;;;184.73;;
60292;SDS011;52402;52.670;6.750;2023-10-31T01:07:07;196.40;;;182.48;;
60292;SDS011;52402;52.670;6.750;2023-10-31T01:09:37;195.73;;;182.07;;
60292;SDS011;52402;52.670;6.750;2023-10-31T01:12:04;196.80;;;183.05;;
60292;SDS011;52402;52.670;6.750;2023-10-31T01:14:30;198.10;;;184.23;;
60292;SDS011;52402;52.670;6.750;2023-10-31T01:16:56;201.63;;;187.43;;
60292;SDS011;52402;52.670;6.750;2023-10-31T01:19:24;202.43;;;188.00;;
60292;SDS011;52402;52.670;6.750;2023-10-31T01:21:50;200.75;;;186.40;;
60292;SDS011;52402;52.670;6.750;2023-10-31T01:24:15;200.85;;;186.05;;
60292;SDS011;52402;52.670;6.750;2023-10-31T01:26:41;201.40;;;187.38;;
60292;SDS011;52402;52.670;6.750;2023-10-31T01:29:06;194.00;;;180.25;;
60292;SDS011;52402;52.670;6.750;2023-10-31T01:31:32;193.13;;;179.57;;
60292;SDS011;52402;52.670;6.750;2023-10-31T01:33:59;191.18;;;177.77;;
60292;SDS011;52402;52.670;6.750;2023-10-31T01:36:25;190.10;;;176.70;;
60292;SDS011;52402;52.670;6.750;2023-10-31T01:38:52;192.30;;;178.82;;
60292;SDS011;52402;52.670;6.750;2023-10-31T01:41:17;199.15;;;185.00;;
60292;SDS011;52402;52.670;6.750;2023-10-31T01:43:43;201.35;;;187.18;;
60292;SDS011;52402;52.670;6.750;2023-10-31T01:46:08;193.43;;;179.90;;
60292;SDS011;52402;52.670;6.750;2023-10-31T01:48:34;195.07;;;180.73;;
60292;SDS011;52402;52.670;6.750;2023-10-31T01:51:01;193.23;;;179.45;;
60292;SDS011;52402;52.670;6.750;2023-10-31T01:53:29;191.77;;;177.90;;
60292;SDS011;52402;52.670;6.750;2023-10-31T01:55:58;188.57;;;174.83;;
60292;SDS011;52402;52.670;6.750;2023-10-31T01:58:28;198.05;;;183.52;;
60292;SDS011;52402;52.670;6.750;2023-10-31T02:01:01;211.98;;;197.27;;
60292;SDS011;52402;52.670;6.750;2023-10-31T02:03:28;200.15;;;185.32;;
60292;SDS011;52402;52.670;6.750;2023-10-31T02:05:54;197.77;;;182.95;;
60292;SDS011;52402;52.670;6.750;2023-10-31T02:08:20;191.18;;;177.10;;
60292;SDS011;52402;52.670;6.750;2023-10-31T02:10:55;198.95;;;184.15;;
60292;SDS011;52402;52.670;6.750;2023-10-31T02:13:20;192.07;;;177.85;;
60292;SDS011;52402;52.670;6.750;2023-10-31T02:15:46;187.13;;;172.88;;
60292;SDS011;52402;52.670;6.750;2023-10-31T02:18:12;193.90;;;179.13;;
60292;SDS011;52402;52.670;6.750;2023-10-31T02:20:38;190.30;;;175.80;;
60292;SDS011;52402;52.670;6.750;2023-10-31T02:23:04;184.85;;;171.18;;
60292;SDS011;52402;52.670;6.750;2023-10-31T02:25:30;192.82;;;178.70;;
60292;SDS011;52402;52.670;6.750;2023-10-31T02:27:56;194.00;;;179.18;;
60292;SDS011;52402;52.670;6.750;2023-10-31T02:30:21;188.52;;;174.48;;
60292;SDS011;52402;52.670;6.750;2023-10-31T02:32:48;189.07;;;174.90;;
60292;SDS011;52402;52.670;6.750;2023-10-31T02:35:15;197.20;;;182.48;;
60292;SDS011;52402;52.670;6.750;2023-10-31T02:37:42;197.52;;;183.05;;
60292;SDS011;52402;52.670;6.750;2023-10-31T02:40:09;193.68;;;178.60;;
60292;SDS011;52402;52.670;6.750;2023-10-31T02:42:35;200.10;;;184.60;;
60292;SDS011;52402;52.670;6.750;2023-10-31T02:45:00;208.75;;;193.38;;
60292;SDS011;52402;52.670;6.750;2023-10-31T02:47:26;205.27;;;190.07;;
60292;SDS011;52402;52.670;6.750;2023-10-31T02:49:52;197.88;;;183.38;;
60292;SDS011;52402;52.670;6.750;2023-10-31T02:52:17;194.70;;;179.88;;
60292;SDS011;52402;52.670;6.750;2023-10-31T02:54:43;198.98;;;184.05;;
60292;SDS011;52402;52.670;6.750;2023-10-31T02:57:08;195.27;;;180.55;;
60292;SDS011;52402;52.670;6.750;2023-10-31T02:59:34;194.18;;;179.52;;
60292;SDS011;52402;52.670;6.750;2023-10-31T03:02:00;202.82;;;187.82;;
60292;SDS011;52402;52.670;6.750;2023-10-31T03:04:26;203.30;;;188.02;;
60292;SDS011;52402;52.670;6.750;2023-10-31T03:06:51;205.40;;;190.07;;
60292;SDS011;52402;52.670;6.750;2023-10-31T03:09:17;208.13;;;192.55;;
60292;SDS011;52402;52.670;6.750;2023-10-31T03:11:43;205.40;;;189.32;;
60292;SDS011;52402;52.670;6.750;2023-10-31T03:14:08;210.25;;;194.65;;
60292;SDS011;52402;52.670;6.750;2023-10-31T03:16:34;202.38;;;186.93;;
60292;SDS011;52402;52.670;6.750;2023-10-31T03:19:00;199.75;;;184.52;;
60292;SDS011;52402;52.670;6.750;2023-10-31T03:21:25;204.98;;;189.30;;
60292;SDS011;52402;52.670;6.750;2023-10-31T03:23:51;205.13;;;189.35;;
60292;SDS011;52402;52.670;6.750;2023-10-31T03:26:18;207.57;;;192.00;;
60292;SDS011;52402;52.670;6.750;2023-10-31T03:28:45;208.10;;;191.90;;
60292;SDS011;52402;52.670;6.750;2023-10-31T03:31:10;210.15;;;194.57;;
60292;SDS011;52402;52.670;6.750;2023-10-31T03:33:37;210.68;;;194.88;;
60292;SDS011;52402;52.670;6.750;2023-10-31T03:36:02;206.00;;;190.15;;
60292;SDS011;52402;52.670;6.750;2023-10-31T03:38:29;203.50;;;188.38;;
60292;SDS011;52402;52.670;6.750;2023-10-31T03:40:55;206.50;;;190.90;;
60292;SDS011;52402;52.670;6.750;2023-10-31T03:43:20;206.25;;;190.95;;
60292;SDS011;52402;52.670;6.750;2023-10-31T03:45:46;205.88;;;190.57;;
60292;SDS011;52402;52.670;6.750;2023-10-31T03:48:12;207.48;;;192.05;;
60292;SDS011;52402;52.670;6.750;2023-10-31T03:50:38;211.73;;;196.65;;
60292;SDS011;52402;52.670;6.750;2023-10-31T03:53:04;213.18;;;197.55;;
60292;SDS011;52402;52.670;6.750;2023-10-31T03:55:29;207.60;;;192.25;;
60292;SDS011;52402;52.670;6.750;2023-10-31T03:57:55;207.05;;;191.98;;
60292;SDS011;52402;52.670;6.750;2023-10-31T04:00:21;207.30;;;191.65;;
60292;SDS011;52402;52.670;6.750;2023-10-31T04:02:46;210.30;;;195.15;;
60292;SDS011;52402;52.670;6.750;2023-10-31T04:05:12;206.63;;;191.80;;
60292;SDS011;52402;52.670;6.750;2023-10-31T04:07:38;209.35;;;194.18;;
60292;SDS011;52402;52.670;6.750;2023-10-31T04:10:04;207.43;;;192.57;;
60292;SDS011;52402;52.670;6.750;2023-10-31T04:12:30;210.23;;;195.30;;
60292;SDS011;52402;52.670;6.750;2023-10-31T04:14:56;212.55;;;197.45;;
60292;SDS011;52402;52.670;6.750;2023-10-31T04:17:22;213.38;;;197.88;;
60292;SDS011;52402;52.670;6.750;2023-10-31T04:19:48;206.63;;;191.23;;
60292;SDS011;52402;52.670;6.750;2023-10-31T04:22:13;212.98;;;197.50;;
60292;SDS011;52402;52.670;6.750;2023-10-31T04:24:39;207.60;;;192.75;;
60292;SDS011;52402;52.670;6.750;2023-10-31T04:27:05;206.73;;;191.88;;
60292;SDS011;52402;52.670;6.750;2023-10-31T04:29:32;203.88;;;188.68;;
60292;SDS011;52402;52.670;6.750;2023-10-31T04:31:57;202.40;;;187.63;;
60292;SDS011;52402;52.670;6.750;2023-10-31T04:34:23;206.30;;;191.07;;
60292;SDS011;52402;52.670;6.750;2023-10-31T04:36:52;207.02;;;191.63;;
60292;SDS011;52402;52.670;6.750;2023-10-31T04:39:17;203.65;;;188.77;;
60292;SDS011;52402;52.670;6.750;2023-10-31T04:41:43;202.88;;;188.00;;
60292;SDS011;52402;52.670;6.750;2023-10-31T04:44:08;208.35;;;193.30;;
60292;SDS011;52402;52.670;6.750;2023-10-31T04:46:34;206.20;;;190.95;;
60292;SDS011;52402;52.670;6.750;2023-10-31T04:49:00;210.65;;;194.65;;
60292;SDS011;52402;52.670;6.750;2023-10-31T04:51:25;206.13;;;191.00;;
60292;SDS011;52402;52.670;6.750;2023-10-31T04:53:51;204.30;;;189.50;;
60292;SDS011;52402;52.670;6.750;2023-10-31T04:56:16;206.23;;;191.32;;
60292;SDS011;52402;52.670;6.750;2023-10-31T04:58:42;204.43;;;189.38;;
60292;SDS011;52402;52.670;6.750;2023-10-31T05:01:12;214.30;;;199.20;;
60292;SDS011;52402;52.670;6.750;2023-10-31T05:03:38;203.30;;;188.95;;
60292;SDS011;52402;52.670;6.750;2023-10-31T05:06:04;206.05;;;191.50;;
60292;SDS011;52402;52.670;6.750;2023-10-31T05:08:31;211.50;;;196.43;;
60292;SDS011;52402;52.670;6.750;2023-10-31T05:10:57;220.05;;;204.57;;
60292;SDS011;52402;52.670;6.750;2023-10-31T05:13:23;217.32;;;201.27;;
60292;SDS011;52402;52.670;6.750;2023-10-31T05:15:49;216.48;;;200.88;;
60292;SDS011;52402;52.670;6.750;2023-10-31T05:18:15;215.77;;;200.30;;
60292;SDS011;52402;52.670;6.750;2023-10-31T05:20:41;217.13;;;201.95;;
60292;SDS011;52402;52.670;6.750;2023-10-31T05:23:07;218.77;;;204.07;;
60292;SDS011;52402;52.670;6.750;2023-10-31T05:25:35;219.35;;;203.90;;
60292;SDS011;52402;52.670;6.750;2023-10-31T05:28:01;221.55;;;206.38;;
60292;SDS011;52402;52.670;6.750;2023-10-31T05:30:27;218.70;;;203.88;;
60292;SDS011;52402;52.670;6.750;2023-10-31T05:32:53;210.70;;;195.93;;
60292;SDS011;52402;52.670;6.750;2023-10-31T05:35:18;213.90;;;198.45;;
60292;SDS011;52402;52.670;6.750;2023-10-31T05:37:45;208.68;;;193.35;;
60292;SDS011;52402;52.670;6.750;2023-10-31T05:40:11;209.93;;;195.13;;
60292;SDS011;52402;52.670;6.750;2023-10-31T05:42:38;211.60;;;196.80;;
60292;SDS011;52402;52.670;6.750;2023-10-31T05:45:04;206.52;;;192.15;;
60292;SDS011;52402;52.670;6.750;2023-10-31T05:47:30;200.63;;;186.75;;
60292;SDS011;52402;52.670;6.750;2023-10-31T05:49:56;204.63;;;190.02;;
60292;SDS011;52402;52.670;6.750;2023-10-31T05:52:22;208.50;;;194.00;;
60292;SDS011;52402;52.670;6.750;2023-10-31T05:54:48;209.65;;;195.27;;
60292;SDS011;52402;52.670;6.750;2023-10-31T05:57:13;211.93;;;197.38;;
60292;SDS011;52402;52.670;6.750;2023-10-31T05:59:39;219.10;;;204.40;;
60292;SDS011;52402;52.670;6.750;2023-10-31T06:02:04;217.77;;;202.82;;
60292;SDS011;52402;52.670;6.750;2023-10-31T06:04:30;209.68;;;195.18;;
60292;SDS011;52402;52.670;6.750;2023-10-31T06:06:55;209.55;;;195.07;;
60292;SDS011;52402;52.670;6.750;2023-10-31T06:09:21;209.35;;;195.30;;
60292;SDS011;52402;52.670;6.750;2023-10-31T06:11:47;204.25;;;189.30;;
60292;SDS011;52402;52.670;6.750;2023-10-31T06:14:12;206.35;;;192.45;;
60292;SDS011;52402;52.670;6.750;2023-10-31T06:16:59;200.32;;;186.38;;
60292;SDS011;52402;52.670;6.750;2023-10-31T06:19:27;200.65;;;186.95;;
60292;SDS011;52402;52.670;6.750;2023-10-31T06:21:53;210.60;;;196.70;;
60292;SDS011;52402;52.670;6.750;2023-10-31T06:24:19;207.95;;;193.00;;
60292;SDS011;52402;52.670;6.750;2023-10-31T06:26:48;209.05;;;194.75;;
60292;SDS011;52402;52.670;6.750;2023-10-31T06:29:13;208.77;;;194.50;;
60292;SDS011;52402;52.670;6.750;2023-10-31T06:31:42;202.00;;;188.18;;
60292;SDS011;52402;52.670;6.750;2023-10-31T06:34:07;195.57;;;182.43;;
60292;SDS011;52402;52.670;6.750;2023-10-31T06:36:33;208.73;;;194.18;;
60292;SDS011;52402;52.670;6.750;2023-10-31T06:38:58;199.40;;;185.68;;
60292;SDS011;52402;52.670;6.750;2023-10-31T06:41:24;201.35;;;187.35;;
60292;SDS011;52402;52.670;6.750;2023-10-31T06:43:49;203.23;;;189.73;;
60292;SDS011;52402;52.670;6.750;2023-10-31T06:46:15;194.30;;;181.60;;
60292;SDS011;52402;52.670;6.750;2023-10-31T06:48:41;173.20;;;161.30;;
60292;SDS011;52402;52.670;6.750;2023-10-31T06:51:07;185.75;;;173.30;;
60292;SDS011;52402;52.670;6.750;2023-10-31T06:53:32;172.52;;;160.73;;
60292;SDS011;52402;52.670;6.750;2023-10-31T06:56:01;171.13;;;159.43;;
60292;SDS011;52402;52.670;6.750;2023-10-31T06:58:26;181.43;;;169.18;;
60292;SDS011;52402;52.670;6.750;2023-10-31T07:00:52;172.10;;;160.23;;
60292;SDS011;52402;52.670;6.750;2023-10-31T07:03:17;169.85;;;158.05;;
60292;SDS011;52402;52.670;6.750;2023-10-31T07:05:43;167.15;;;155.43;;
60292;SDS011;52402;52.670;6.750;2023-10-31T07:08:08;169.80;;;158.00;;
60292;SDS011;52402;52.670;6.750;2023-10-31T07:10:34;170.57;;;158.98;;
60292;SDS011;52402;52.670;6.750;2023-10-31T07:13:00;160.80;;;149.73;;
60292;SDS011;52402;52.670;6.750;2023-10-31T07:15:26;162.95;;;151.85;;
60292;SDS011;52402;52.670;6.750;2023-10-31T07:17:51;160.82;;;149.73;;
60292;SDS011;52402;52.670;6.750;2023-10-31T07:20:17;160.18;;;149.27;;
60292;SDS011;52402;52.670;6.750;2023-10-31T07:22:42;158.57;;;147.88;;
60292;SDS011;52402;52.670;6.750;2023-10-31T07:25:08;163.25;;;152.52;;
60292;SDS011;52402;52.670;6.750;2023-10-31T07:27:34;163.68;;;152.98;;
60292;SDS011;52402;52.670;6.750;2023-10-31T07:30:00;163.75;;;152.98;;
60292;SDS011;52402;52.670;6.750;2023-10-31T07:32:27;158.15;;;147.25;;
60292;SDS011;52402;52.670;6.750;2023-10-31T07:34:52;157.77;;;147.13;;
60292;SDS011;52402;52.670;6.750;2023-10-31T07:37:18;168.30;;;157.23;;
60292;SDS011;52402;52.670;6.750;2023-10-31T07:39:44;160.55;;;150.07;;
60292;SDS011;52402;52.670;6.750;2023-10-31T07:42:09;154.30;;;143.93;;
60292;SDS011;52402;52.670;6.750;2023-10-31T07:44:35;155.88;;;145.30;;
60292;SDS011;52402;52.670;6.750;2023-10-31T07:47:00;152.55;;;142.25;;
60292;SDS011;52402;52.670;6.750;2023-10-31T07:49:26;157.20;;;146.70;;
60292;SDS011;52402;52.670;6.750;2023-10-31T07:51:52;148.80;;;138.80;;
60292;SDS011;52402;52.670;6.750;2023-10-31T07:54:18;150.40;;;140.20;;
60292;SDS011;52402;52.670;6.750;2023-10-31T07:56:44;156.95;;;146.38;;
60292;SDS011;52402;52.670;6.750;2023-10-31T07:59:10;156.75;;;146.18;;
60292;SDS011;52402;52.670;6.750;2023-10-31T08:01:36;152.18;;;141.73;;
60292;SDS011;52402;52.670;6.750;2023-10-31T08:04:02;148.65;;;138.60;;
60292;SDS011;52402;52.670;6.750;2023-10-31T08:06:28;146.23;;;135.90;;
60292;SDS011;52402;52.670;6.750;2023-10-31T08:08:53;151.30;;;140.90;;
60292;SDS011;52402;52.670;6.750;2023-10-31T08:11:19;147.80;;;137.50;;
60292;SDS011;52402;52.670;6.750;2023-10-31T08:13:45;157.40;;;146.80;;
60292;SDS011;52402;52.670;6.750;2023-10-31T08:16:16;153.77;;;143.43;;
60292;SDS011;52402;52.670;6.750;2023-10-31T08:18:44;154.88;;;144.68;;
60292;SDS011;52402;52.670;6.750;2023-10-31T08:21:11;150.05;;;139.90;;
60292;SDS011;52402;52.670;6.750;2023-10-31T08:23:37;152.88;;;142.88;;
60292;SDS011;52402;52.670;6.750;2023-10-31T08:26:02;147.13;;;137.32;;
60292;SDS011;52402;52.670;6.750;2023-10-31T08:28:28;145.32;;;135.73;;
60292;SDS011;52402;52.670;6.750;2023-10-31T08:30:55;145.90;;;136.25;;
60292;SDS011;52402;52.670;6.750;2023-10-31T08:33:21;144.27;;;134.65;;
60292;SDS011;52402;52.670;6.750;2023-10-31T08:35:46;136.95;;;127.88;;
60292;SDS011;52402;52.670;6.750;2023-10-31T08:38:12;138.88;;;129.60;;
60292;SDS011;52402;52.670;6.750;2023-10-31T08:40:38;139.32;;;130.23;;
60292;SDS011;52402;52.670;6.750;2023-10-31T08:43:04;146.55;;;137.15;;
60292;SDS011;52402;52.670;6.750;2023-10-31T08:45:31;144.00;;;134.80;;
60292;SDS011;52402;52.670;6.750;2023-10-31T08:47:58;139.93;;;130.82;;
60292;SDS011;52402;52.670;6.750;2023-10-31T08:50:23;143.00;;;133.80;;
60292;SDS011;52402;52.670;6.750;2023-10-31T08:52:49;137.88;;;128.95;;
60292;SDS011;52402;52.670;6.750;2023-10-31T08:55:15;143.75;;;134.55;;
60292;SDS011;52402;52.670;6.750;2023-10-31T08:57:41;144.57;;;135.25;;
60292;SDS011;52402;52.670;6.750;2023-10-31T09:00:06;151.35;;;141.85;;
60292;SDS011;52402;52.670;6.750;2023-10-31T09:02:33;144.20;;;135.02;;
60292;SDS011;52402;52.670;6.750;2023-10-31T09:04:59;133.18;;;124.60;;
60292;SDS011;52402;52.670;6.750;2023-10-31T09:07:25;137.18;;;128.27;;
60292;SDS011;52402;52.670;6.750;2023-10-31T09:09:50;141.57;;;132.45;;
60292;SDS011;52402;52.670;6.750;2023-10-31T09:12:16;139.43;;;130.32;;
60292;SDS011;52402;52.670;6.750;2023-10-31T09:14:41;135.48;;;126.57;;
60292;SDS011;52402;52.670;6.750;2023-10-31T09:17:07;137.45;;;128.30;;
60292;SDS011;52402;52.670;6.750;2023-10-31T09:19:33;129.25;;;120.60;;
60292;SDS011;52402;52.670;6.750;2023-10-31T09:21:58;122.57;;;114.45;;
60292;SDS011;52402;52.670;6.750;2023-10-31T09:24:24;129.20;;;120.70;;
60292;SDS011;52402;52.670;6.750;2023-10-31T09:26:49;132.93;;;124.22;;
60292;SDS011;52402;52.670;6.750;2023-10-31T09:29:15;128.90;;;120.47;;
60292;SDS011;52402;52.670;6.750;2023-10-31T09:31:41;116.95;;;109.15;;
60292;SDS011;52402;52.670;6.750;2023-10-31T09:34:06;112.95;;;105.43;;
60292;SDS011;52402;52.670;6.750;2023-10-31T09:36:32;113.90;;;106.10;;
60292;SDS011;52402;52.670;6.750;2023-10-31T09:39:00;115.45;;;107.75;;
60292;SDS011;52402;52.670;6.750;2023-10-31T09:41:25;115.00;;;107.40;;
60292;SDS011;52402;52.670;6.750;2023-10-31T09:43:51;119.65;;;111.65;;
60292;SDS011;52402;52.670;6.750;2023-10-31T09:46:17;113.43;;;105.82;;
60292;SDS011;52402;52.670;6.750;2023-10-31T09:48:43;110.53;;;103.13;;
60292;SDS011;52402;52.670;6.750;2023-10-31T09:51:09;115.70;;;108.03;;
60292;SDS011;52402;52.670;6.750;2023-10-31T09:53:38;108.82;;;101.50;;
60292;SDS011;52402;52.670;6.750;2023-10-31T09:56:08;108.60;;;101.32;;
60292;SDS011;52402;52.670;6.750;2023-10-31T09:58:35;110.18;;;102.72;;
60292;SDS011;52402;52.670;6.750;2023-10-31T10:01:01;104.22;;;97.15;;
60292;SDS011;52402;52.670;6.750;2023-10-31T10:03:27;100.75;;;93.75;;
60292;SDS011;52402;52.670;6.750;2023-10-31T10:05:52;100.32;;;93.53;;
60292;SDS011;52402;52.670;6.750;2023-10-31T10:08:22;104.03;;;97.00;;
60292;SDS011;52402;52.670;6.750;2023-10-31T10:10:47;102.57;;;95.47;;
60292;SDS011;52402;52.670;6.750;2023-10-31T10:13:17;99.32;;;92.53;;
60292;SDS011;52402;52.670;6.750;2023-10-31T10:15:46;96.68;;;90.10;;
60292;SDS011;52402;52.670;6.750;2023-10-31T10:18:27;96.50;;;89.82;;
60292;SDS011;52402;52.670;6.750;2023-10-31T10:20:57;94.75;;;88.25;;
60292;SDS011;52402;52.670;6.750;2023-10-31T10:23:25;90.20;;;83.95;;
60292;SDS011;52402;52.670;6.750;2023-10-31T10:25:51;88.82;;;82.72;;
60292;SDS011;52402;52.670;6.750;2023-10-31T10:28:18;90.28;;;84.07;;
60292;SDS011;52402;52.670;6.750;2023-10-31T10:30:46;91.60;;;85.40;;
60292;SDS011;52402;52.670;6.750;2023-10-31T10:33:13;93.70;;;87.28;;
60292;SDS011;52402;52.670;6.750;2023-10-31T10:35:39;91.90;;;85.60;;
60292;SDS011;52402;52.670;6.750;2023-10-31T10:38:15;105.40;;;98.50;;
60292;SDS011;52402;52.670;6.750;2023-10-31T10:40:42;101.88;;;94.88;;
60292;SDS011;52402;52.670;6.750;2023-10-31T10:43:12;103.47;;;96.50;;
60292;SDS011;52402;52.670;6.750;2023-10-31T10:45:37;112.20;;;104.85;;
60292;SDS011;52402;52.670;6.750;2023-10-31T10:48:07;124.50;;;116.50;;
60292;SDS011;52402;52.670;6.750;2023-10-31T10:50:36;121.47;;;113.55;;
60292;SDS011;52402;52.670;6.750;2023-10-31T10:53:13;119.55;;;111.43;;
60292;SDS011;52402;52.670;6.750;2023-10-31T10:55:52;124.40;;;116.07;;
60292;SDS011;52402;52.670;6.750;2023-10-31T10:58:37;131.88;;;123.50;;
60292;SDS011;52402;52.670;6.750;2023-10-31T11:01:22;123.18;;;115.18;;
60292;SDS011;52402;52.670;6.750;2023-10-31T11:03:49;122.72;;;114.75;;
60292;SDS011;52402;52.670;6.750;2023-10-31T11:06:16;120.45;;;112.47;;
60292;SDS011;52402;52.670;6.750;2023-10-31T11:08:44;124.00;;;116.03;;
60292;SDS011;52402;52.670;6.750;2023-10-31T11:11:11;118.55;;;110.85;;
60292;SDS011;52402;52.670;6.750;2023-10-31T11:13:37;121.15;;;113.15;;
60292;SDS011;52402;52.670;6.750;2023-10-31T11:16:05;109.35;;;101.97;;
60292;SDS011;52402;52.670;6.750;2023-10-31T11:18:35;113.80;;;106.30;;
60292;SDS011;52402;52.670;6.750;2023-10-31T11:21:01;110.47;;;103.15;;
60292;SDS011;52402;52.670;6.750;2023-10-31T11:23:27;107.60;;;100.45;;
60292;SDS011;52402;52.670;6.750;2023-10-31T11:25:53;129.98;;;121.57;;
60292;SDS011;52402;52.670;6.750;2023-10-31T11:28:20;121.43;;;113.72;;
60292;SDS011;52402;52.670;6.750;2023-10-31T11:30:49;123.95;;;116.05;;
60292;SDS011;52402;52.670;6.750;2023-10-31T11:33:16;124.07;;;116.13;;
60292;SDS011;52402;52.670;6.750;2023-10-31T11:35:49;118.38;;;110.88;;
60292;SDS011;52402;52.670;6.750;2023-10-31T11:38:15;116.45;;;108.97;;
60292;SDS011;52402;52.670;6.750;2023-10-31T11:43:23;106.22;;;99.32;;
60292;SDS011;52402;52.670;6.750;2023-10-31T11:45:48;113.60;;;106.40;;
60292;SDS011;52402;52.670;6.750;2023-10-31T11:48:14;112.78;;;105.63;;
60292;SDS011;52402;52.670;6.750;2023-10-31T11:50:41;109.15;;;102.07;;
60292;SDS011;52402;52.670;6.750;2023-10-31T11:53:13;101.88;;;95.10;;
60292;SDS011;52402;52.670;6.750;2023-10-31T12:00:44;113.10;;;105.90;;
60292;SDS011;52402;52.670;6.750;2023-10-31T12:03:18;109.18;;;102.18;;
60292;SDS011;52402;52.670;6.750;2023-10-31T12:05:53;112.60;;;105.38;;
60292;SDS011;52402;52.670;6.750;2023-10-31T12:08:28;115.20;;;107.60;;
60292;SDS011;52402;52.670;6.750;2023-10-31T12:11:14;112.38;;;105.18;;
60292;SDS011;52402;52.670;6.750;2023-10-31T12:13:57;102.95;;;96.10;;
60292;SDS011;52402;52.670;6.750;2023-10-31T12:16:31;118.35;;;110.63;;
60292;SDS011;52402;52.670;6.750;2023-10-31T12:21:35;110.43;;;103.22;;
60292;SDS011;52402;52.670;6.750;2023-10-31T12:24:12;107.00;;;99.97;;
60292;SDS011;52402;52.670;6.750;2023-10-31T12:26:39;109.65;;;102.53;;
60292;SDS011;52402;52.670;6.750;2023-10-31T12:29:09;109.53;;;102.35;;
60292;SDS011;52402;52.670;6.750;2023-10-31T12:31:42;100.75;;;93.85;;
60292;SDS011;52402;52.670;6.750;2023-10-31T12:36:35;101.20;;;94.10;;
60292;SDS011;52402;52.670;6.750;2023-10-31T12:39:01;107.57;;;99.88;;
60292;SDS011;52402;52.670;6.750;2023-10-31T12:41:29;103.50;;;96.28;;
60292;SDS011;52402;52.670;6.750;2023-10-31T12:43:55;112.85;;;105.18;;
60292;SDS011;52402;52.670;6.750;2023-10-31T12:46:24;106.60;;;99.13;;
60292;SDS011;52402;52.670;6.750;2023-10-31T12:51:16;104.63;;;97.40;;
60292;SDS011;52402;52.670;6.750;2023-10-31T12:53:42;103.70;;;96.47;;
60292;SDS011;52402;52.670;6.750;2023-10-31T12:56:34;102.03;;;95.13;;
60292;SDS011;52402;52.670;6.750;2023-10-31T12:59:06;93.13;;;86.65;;
60292;SDS011;52402;52.670;6.750;2023-10-31T13:01:36;100.97;;;94.07;;
60292;SDS011;52402;52.670;6.750;2023-10-31T13:04:08;104.45;;;97.43;;
60292;SDS011;52402;52.670;6.750;2023-10-31T13:06:34;107.03;;;99.93;;
60292;SDS011;52402;52.670;6.750;2023-10-31T13:09:00;104.55;;;97.55;;
60292;SDS011;52402;52.670;6.750;2023-10-31T13:11:31;106.32;;;99.18;;
60292;SDS011;52402;52.670;6.750;2023-10-31T13:13:57;98.32;;;91.60;;
60292;SDS011;52402;52.670;6.750;2023-10-31T13:16:23;107.03;;;99.72;;
60292;SDS011;52402;52.670;6.750;2023-10-31T13:18:52;106.20;;;99.07;;
60292;SDS011;52402;52.670;6.750;2023-10-31T13:21:18;111.70;;;104.40;;
60292;SDS011;52402;52.670;6.750;2023-10-31T13:23:44;113.22;;;105.75;;
60292;SDS011;52402;52.670;6.750;2023-10-31T13:26:11;116.53;;;108.93;;
60292;SDS011;52402;52.670;6.750;2023-10-31T13:28:37;113.95;;;106.50;;
60292;SDS011;52402;52.670;6.750;2023-10-31T13:31:04;108.85;;;101.55;;
60292;SDS011;52402;52.670;6.750;2023-10-31T13:33:31;101.50;;;94.57;;
60292;SDS011;52402;52.670;6.750;2023-10-31T13:35:57;95.90;;;89.43;;
60292;SDS011;52402;52.670;6.750;2023-10-31T13:38:23;112.10;;;104.80;;
60292;SDS011;52402;52.670;6.750;2023-10-31T13:40:48;113.90;;;106.35;;
60292;SDS011;52402;52.670;6.750;2023-10-31T13:43:14;109.60;;;102.43;;
60292;SDS011;52402;52.670;6.750;2023-10-31T13:45:39;105.72;;;98.53;;
60292;SDS011;52402;52.670;6.750;2023-10-31T13:48:05;110.40;;;103.03;;
60292;SDS011;52402;52.670;6.750;2023-10-31T13:50:31;113.47;;;105.88;;
60292;SDS011;52402;52.670;6.750;2023-10-31T13:52:56;110.63;;;103.30;;
60292;SDS011;52402;52.670;6.750;2023-10-31T13:55:22;111.05;;;103.55;;
60292;SDS011;52402;52.670;6.750;2023-10-31T13:57:49;110.95;;;103.55;;
60292;SDS011;52402;52.670;6.750;2023-10-31T14:00:15;110.30;;;103.10;;
60292;SDS011;52402;52.670;6.750;2023-10-31T14:02:40;107.25;;;100.20;;
60292;SDS011;52402;52.670;6.750;2023-10-31T14:05:06;104.32;;;97.40;;
60292;SDS011;52402;52.670;6.750;2023-10-31T14:07:32;102.72;;;95.82;;
60292;SDS011;52402;52.670;6.750;2023-10-31T14:09:58;93.32;;;86.88;;
60292;SDS011;52402;52.670;6.750;2023-10-31T14:12:24;93.85;;;87.45;;